createdAt,value
2019-03-06T00:00:28.769Z,1013.68
2019-03-06T00:01:28.770Z,1013.66
2019-03-06T00:02:28.786Z,1013.67
2019-03-06T00:03:28.788Z,1013.66
2019-03-06T00:04:28.760Z,1013.64
2019-03-06T00:05:28.894Z,1013.63
2019-03-06T00:06:28.751Z,1013.63
2019-03-06T00:07:28.763Z,1013.6
2019-03-06T00:08:28.764Z,1013.53
2019-03-06T00:09:28.774Z,1013.51
2019-03-06T00:10:28.812Z,1013.48
2019-03-06T00:11:28.748Z,1013.48
2019-03-06T00:12:28.752Z,1013.5
2019-03-06T00:13:28.762Z,1013.47
2019-03-06T00:14:28.849Z,1013.49
2019-03-06T00:15:28.820Z,1013.49
2019-03-06T00:16:28.761Z,1013.5
2019-03-06T00:17:28.911Z,1013.48
2019-03-06T00:18:28.968Z,1013.51
2019-03-06T00:19:28.778Z,1013.53
2019-03-06T00:20:28.752Z,1013.5
2019-03-06T00:21:28.760Z,1013.5
2019-03-06T00:22:28.780Z,1013.51
2019-03-06T00:23:28.925Z,1013.49
2019-03-06T00:24:28.750Z,1013.51
2019-03-06T00:25:28.879Z,1013.52
2019-03-06T00:26:28.742Z,1013.49
2019-03-06T00:27:28.729Z,1013.48
2019-03-06T00:28:28.738Z,1013.46
2019-03-06T00:29:28.768Z,1013.49
2019-03-06T00:30:28.737Z,1013.46
2019-03-06T00:31:28.776Z,1013.46
2019-03-06T00:32:28.949Z,1013.47
2019-03-06T00:33:28.786Z,1013.44
2019-03-06T00:34:28.797Z,1013.44
2019-03-06T00:35:28.724Z,1013.47
2019-03-06T00:36:28.759Z,1013.41
2019-03-06T00:37:28.731Z,1013.35
2019-03-06T00:38:28.737Z,1013.36
2019-03-06T00:39:28.792Z,1013.36
2019-03-06T00:40:28.743Z,1013.36
2019-03-06T00:41:28.787Z,1013.36
2019-03-06T00:42:28.725Z,1013.37
2019-03-06T00:43:28.788Z,1013.33
2019-03-06T00:44:28.742Z,1013.34
2019-03-06T00:45:28.755Z,1013.3
2019-03-06T00:46:28.797Z,1013.3
2019-03-06T00:47:28.743Z,1013.28
2019-03-06T00:48:28.724Z,1013.27
2019-03-06T00:49:28.697Z,1013.3
2019-03-06T00:50:28.723Z,1013.28
2019-03-06T00:51:28.713Z,1013.29
2019-03-06T00:52:28.737Z,1013.31
2019-03-06T00:53:28.747Z,1013.29
2019-03-06T00:54:28.692Z,1013.31
2019-03-06T00:55:28.718Z,1013.3
2019-03-06T00:56:28.749Z,1013.31
2019-03-06T00:57:28.715Z,1013.29
2019-03-06T00:58:28.905Z,1013.34
2019-03-06T00:59:28.698Z,1013.32
2019-03-06T01:00:28.710Z,1013.31
2019-03-06T01:01:28.697Z,1013.33
2019-03-06T01:02:28.699Z,1013.26
2019-03-06T01:03:28.712Z,1013.24
2019-03-06T01:04:28.712Z,1013.23
2019-03-06T01:05:28.787Z,1013.19
2019-03-06T01:06:28.710Z,1013.14
2019-03-06T01:07:28.933Z,1013.11
2019-03-06T01:08:28.688Z,1013.11
2019-03-06T01:09:28.692Z,1013.07
2019-03-06T01:10:28.699Z,1013.06
2019-03-06T01:11:28.732Z,1013.05
2019-03-06T01:12:28.679Z,1013.06
2019-03-06T01:13:28.699Z,1013.05
2019-03-06T01:14:28.694Z,1013.06
2019-03-06T01:15:28.671Z,1013.08
2019-03-06T01:16:28.946Z,1013.11
2019-03-06T01:17:28.724Z,1013.09
2019-03-06T01:18:28.684Z,1013.1
2019-03-06T01:19:28.681Z,1013.14
2019-03-06T01:20:28.665Z,1013.13
2019-03-06T01:21:28.671Z,1013.08
2019-03-06T01:22:28.659Z,1013.07
2019-03-06T01:23:28.663Z,1013.08
2019-03-06T01:24:29.028Z,1013.07
2019-03-06T01:25:28.979Z,1013.03
2019-03-06T01:26:28.744Z,1013.02
2019-03-06T01:27:28.683Z,1013
2019-03-06T01:28:28.645Z,1012.99
2019-03-06T01:29:28.661Z,1012.91
2019-03-06T01:30:28.703Z,1012.92
2019-03-06T01:31:28.651Z,1012.9
2019-03-06T01:32:28.663Z,1012.88
2019-03-06T01:33:28.646Z,1012.88
2019-03-06T01:34:28.865Z,1012.86
2019-03-06T01:35:28.684Z,1012.87
2019-03-06T01:36:28.640Z,1012.86
2019-03-06T01:37:28.653Z,1012.82
2019-03-06T01:38:28.633Z,1012.85
2019-03-06T01:39:28.667Z,1012.85
2019-03-06T01:40:28.652Z,1012.86
2019-03-06T01:41:28.677Z,1012.89
2019-03-06T01:42:31.338Z,1012.87
2019-03-06T01:43:28.903Z,1012.93
2019-03-06T01:44:28.653Z,1012.83
2019-03-06T01:45:28.664Z,1012.86
2019-03-06T01:46:28.745Z,1012.82
2019-03-06T01:47:28.727Z,1012.79
2019-03-06T01:48:28.661Z,1012.77
2019-03-06T01:49:28.653Z,1012.72
2019-03-06T01:50:28.638Z,1012.66
2019-03-06T01:51:28.615Z,1012.68
2019-03-06T01:52:28.612Z,1012.68
2019-03-06T01:53:28.640Z,1012.7
2019-03-06T01:54:28.610Z,1012.67
2019-03-06T01:55:28.741Z,1012.67
2019-03-06T01:56:28.682Z,1012.66
2019-03-06T01:57:28.637Z,1012.63
2019-03-06T01:58:28.735Z,1012.67
2019-03-06T01:59:28.691Z,1012.64
2019-03-06T02:00:28.735Z,1012.61
2019-03-06T02:01:28.652Z,1012.58
2019-03-06T02:02:28.640Z,1012.6
2019-03-06T02:03:28.615Z,1012.58
2019-03-06T02:04:28.624Z,1012.54
2019-03-06T02:05:28.656Z,1012.51
2019-03-06T02:06:28.640Z,1012.52
2019-03-06T02:07:28.618Z,1012.5
2019-03-06T02:08:28.633Z,1012.44
2019-03-06T02:09:29.126Z,1012.42
2019-03-06T02:10:28.610Z,1012.43
2019-03-06T02:11:28.612Z,1012.44
2019-03-06T02:12:28.605Z,1012.43
2019-03-06T02:13:28.597Z,1012.43
2019-03-06T02:14:28.609Z,1012.44
2019-03-06T02:15:28.614Z,1012.45
2019-03-06T02:16:28.638Z,1012.49
2019-03-06T02:17:28.666Z,1012.48
2019-03-06T02:18:29.024Z,1012.51
2019-03-06T02:19:28.599Z,1012.44
2019-03-06T02:20:28.597Z,1012.39
2019-03-06T02:21:28.589Z,1012.37
2019-03-06T02:22:28.589Z,1012.3
2019-03-06T02:23:28.610Z,1012.3
2019-03-06T02:24:28.562Z,1012.29
2019-03-06T02:25:28.583Z,1012.3
2019-03-06T02:26:28.564Z,1012.28
2019-03-06T02:27:28.738Z,1012.26
2019-03-06T02:28:28.558Z,1012.21
2019-03-06T02:29:28.583Z,1012.19
2019-03-06T02:30:28.686Z,1012.2
2019-03-06T02:31:28.691Z,1012.17
2019-03-06T02:32:28.603Z,1012.17
2019-03-06T02:33:28.574Z,1012.12
2019-03-06T02:34:28.598Z,1012.11
2019-03-06T02:35:28.764Z,1012.11
2019-03-06T02:36:28.544Z,1012.11
2019-03-06T02:37:28.578Z,1012.1
2019-03-06T02:38:28.595Z,1012.07
2019-03-06T02:39:28.573Z,1012.06
2019-03-06T02:40:28.661Z,1012.01
2019-03-06T02:41:28.542Z,1012
2019-03-06T02:42:28.560Z,1012
2019-03-06T02:43:28.575Z,1011.96
2019-03-06T02:44:28.625Z,1011.89
2019-03-06T02:45:28.564Z,1011.83
2019-03-06T02:46:28.575Z,1011.85
2019-03-06T02:47:28.556Z,1011.86
2019-03-06T02:48:28.630Z,1011.87
2019-03-06T02:49:28.584Z,1011.84
2019-03-06T02:50:28.560Z,1011.87
2019-03-06T02:51:28.562Z,1011.88
2019-03-06T02:52:28.804Z,1011.85
2019-03-06T02:53:28.680Z,1011.81
2019-03-06T02:54:28.549Z,1011.82
2019-03-06T02:55:28.557Z,1011.84
2019-03-06T02:56:28.595Z,1011.91
2019-03-06T02:57:28.528Z,1011.92
2019-03-06T02:58:28.579Z,1011.92
2019-03-06T02:59:28.563Z,1011.88
2019-03-06T03:00:28.586Z,1011.89
2019-03-06T03:01:28.898Z,1011.84
2019-03-06T03:02:28.532Z,1011.86
2019-03-06T03:03:28.533Z,1011.88
2019-03-06T03:04:28.524Z,1011.96
2019-03-06T03:05:28.550Z,1011.97
2019-03-06T03:06:28.536Z,1011.93
2019-03-06T03:07:28.529Z,1011.83
2019-03-06T03:08:28.544Z,1011.81
2019-03-06T03:09:28.579Z,1011.74
2019-03-06T03:10:28.567Z,1011.72
2019-03-06T03:11:28.564Z,1011.67
2019-03-06T03:12:28.526Z,1011.68
2019-03-06T03:13:28.519Z,1011.59
2019-03-06T03:14:28.848Z,1011.54
2019-03-06T03:15:28.543Z,1011.54
2019-03-06T03:16:28.535Z,1011.56
2019-03-06T03:17:28.533Z,1011.54
2019-03-06T03:18:28.916Z,1011.48
2019-03-06T03:19:28.536Z,1011.48
2019-03-06T03:20:28.522Z,1011.48
2019-03-06T03:21:28.522Z,1011.47
2019-03-06T03:22:28.498Z,1011.53
2019-03-06T03:23:28.521Z,1011.53
2019-03-06T03:24:28.524Z,1011.51
2019-03-06T03:25:28.549Z,1011.53
2019-03-06T03:26:28.501Z,1011.55
2019-03-06T03:27:28.502Z,1011.49
2019-03-06T03:28:28.486Z,1011.49
2019-03-06T03:29:28.493Z,1011.43
2019-03-06T03:30:28.585Z,1011.41
2019-03-06T03:31:28.517Z,1011.41
2019-03-06T03:32:28.485Z,1011.4
2019-03-06T03:33:28.535Z,1011.43
2019-03-06T03:34:28.464Z,1011.44
2019-03-06T03:35:28.920Z,1011.42
2019-03-06T03:36:28.470Z,1011.44
2019-03-06T03:37:28.508Z,1011.46
2019-03-06T03:38:28.503Z,1011.44
2019-03-06T03:39:28.502Z,1011.44
2019-03-06T03:40:28.506Z,1011.39
2019-03-06T03:41:28.475Z,1011.38
2019-03-06T03:42:28.503Z,1011.33
2019-03-06T03:43:28.493Z,1011.32
2019-03-06T03:44:28.480Z,1011.36
2019-03-06T03:45:28.502Z,1011.38
2019-03-06T03:46:28.477Z,1011.42
2019-03-06T03:47:28.490Z,1011.43
2019-03-06T03:48:28.498Z,1011.43
2019-03-06T03:49:28.511Z,1011.42
2019-03-06T03:50:28.464Z,1011.48
2019-03-06T03:51:28.491Z,1011.46
2019-03-06T03:52:28.655Z,1011.46
2019-03-06T03:53:28.494Z,1011.42
2019-03-06T03:54:28.459Z,1011.41
2019-03-06T03:55:28.468Z,1011.47
2019-03-06T03:56:28.485Z,1011.46
2019-03-06T03:57:28.453Z,1011.48
2019-03-06T03:58:28.444Z,1011.52
2019-03-06T03:59:28.447Z,1011.53
2019-03-06T04:00:28.455Z,1011.51
2019-03-06T04:01:28.442Z,1011.51
2019-03-06T04:02:28.449Z,1011.44
2019-03-06T04:03:28.468Z,1011.45
2019-03-06T04:04:28.465Z,1011.46
2019-03-06T04:05:28.440Z,1011.48
2019-03-06T04:06:28.463Z,1011.46
2019-03-06T04:07:28.437Z,1011.5
2019-03-06T04:08:28.423Z,1011.49
2019-03-06T04:09:28.628Z,1011.47
2019-03-06T04:10:28.477Z,1011.46
2019-03-06T04:11:28.468Z,1011.47
2019-03-06T04:12:28.475Z,1011.49
2019-03-06T04:13:28.481Z,1011.48
2019-03-06T04:14:28.431Z,1011.5
2019-03-06T04:15:28.441Z,1011.54
2019-03-06T04:16:28.451Z,1011.61
2019-03-06T04:17:28.495Z,1011.64
2019-03-06T04:18:28.434Z,1011.67
2019-03-06T04:19:28.463Z,1011.64
2019-03-06T04:20:28.446Z,1011.62
2019-03-06T04:21:28.428Z,1011.52
2019-03-06T04:22:28.421Z,1011.52
2019-03-06T04:23:28.432Z,1011.51
2019-03-06T04:24:28.430Z,1011.51
2019-03-06T04:25:28.419Z,1011.55
2019-03-06T04:26:28.604Z,1011.51
2019-03-06T04:27:28.430Z,1011.41
2019-03-06T04:28:28.405Z,1011.4
2019-03-06T04:29:28.409Z,1011.36
2019-03-06T04:30:28.404Z,1011.36
2019-03-06T04:31:28.407Z,1011.42
2019-03-06T04:32:28.447Z,1011.37
2019-03-06T04:33:28.403Z,1011.34
2019-03-06T04:34:28.404Z,1011.33
2019-03-06T04:35:28.406Z,1011.27
2019-03-06T04:36:28.396Z,1011.31
2019-03-06T04:37:28.401Z,1011.26
2019-03-06T04:38:28.379Z,1011.29
2019-03-06T04:39:28.375Z,1011.3
2019-03-06T04:40:28.365Z,1011.37
2019-03-06T04:41:28.419Z,1011.36
2019-03-06T04:42:28.383Z,1011.37
2019-03-06T04:43:28.536Z,1011.38
2019-03-06T04:44:28.421Z,1011.38
2019-03-06T04:45:28.386Z,1011.39
2019-03-06T04:46:28.415Z,1011.4
2019-03-06T04:47:28.395Z,1011.41
2019-03-06T04:48:28.387Z,1011.42
2019-03-06T04:49:28.385Z,1011.41
2019-03-06T04:50:28.399Z,1011.4
2019-03-06T04:51:28.378Z,1011.4
2019-03-06T04:52:28.500Z,1011.35
2019-03-06T04:53:28.374Z,1011.28
2019-03-06T04:54:28.358Z,1011.31
2019-03-06T04:55:28.378Z,1011.28
2019-03-06T04:56:28.369Z,1011.27
2019-03-06T04:57:28.370Z,1011.19
2019-03-06T04:58:28.392Z,1011.21
2019-03-06T04:59:28.369Z,1011.13
2019-03-06T05:00:28.366Z,1011.11
2019-03-06T05:01:28.364Z,1011.1
2019-03-06T05:02:28.346Z,1011.08
2019-03-06T05:03:28.356Z,1011.05
2019-03-06T05:04:28.383Z,1011.02
2019-03-06T05:05:28.338Z,1010.99
2019-03-06T05:06:29.321Z,1010.99
2019-03-06T05:07:28.360Z,1010.98
2019-03-06T05:08:28.362Z,1010.95
2019-03-06T05:09:28.530Z,1010.95
2019-03-06T05:10:28.336Z,1010.93
2019-03-06T05:11:28.344Z,1010.88
2019-03-06T05:12:28.341Z,1010.89
2019-03-06T05:13:28.335Z,1010.89
2019-03-06T05:14:28.362Z,1010.82
2019-03-06T05:15:28.338Z,1010.78
2019-03-06T05:16:28.319Z,1010.8
2019-03-06T05:17:28.352Z,1010.79
2019-03-06T05:18:28.598Z,1010.76
2019-03-06T05:19:28.356Z,1010.77
2019-03-06T05:20:28.367Z,1010.77
2019-03-06T05:21:28.353Z,1010.75
2019-03-06T05:22:28.375Z,1010.78
2019-03-06T05:23:28.322Z,1010.79
2019-03-06T05:24:28.320Z,1010.81
2019-03-06T05:25:28.351Z,1010.85
2019-03-06T05:26:28.323Z,1010.84
2019-03-06T05:27:28.310Z,1010.8
2019-03-06T05:28:28.331Z,1010.83
2019-03-06T05:29:28.300Z,1010.82
2019-03-06T05:30:28.307Z,1010.83
2019-03-06T05:31:28.335Z,1010.85
2019-03-06T05:32:28.313Z,1010.82
2019-03-06T05:33:28.886Z,1010.79
2019-03-06T05:34:28.402Z,1010.82
2019-03-06T05:35:28.900Z,1010.8
2019-03-06T05:36:28.332Z,1010.83
2019-03-06T05:37:28.315Z,1010.81
2019-03-06T05:38:28.302Z,1010.85
2019-03-06T05:39:28.320Z,1010.87
2019-03-06T05:40:28.381Z,1010.89
2019-03-06T05:41:28.309Z,1010.87
2019-03-06T05:42:28.313Z,1010.81
2019-03-06T05:43:28.297Z,1010.79
2019-03-06T05:44:28.410Z,1010.75
2019-03-06T05:45:28.281Z,1010.69
2019-03-06T05:46:28.313Z,1010.7
2019-03-06T05:47:28.287Z,1010.67
2019-03-06T05:48:28.287Z,1010.67
2019-03-06T05:49:28.302Z,1010.61
2019-03-06T05:50:28.278Z,1010.55
2019-03-06T05:51:28.264Z,1010.55
2019-03-06T05:52:28.329Z,1010.52
2019-03-06T05:53:28.523Z,1010.55
2019-03-06T05:54:28.289Z,1010.54
2019-03-06T05:55:28.282Z,1010.56
2019-03-06T05:56:28.297Z,1010.48
2019-03-06T05:57:28.267Z,1010.49
2019-03-06T05:58:28.274Z,1010.46
2019-03-06T05:59:28.271Z,1010.46
2019-03-06T06:00:28.254Z,1010.48
2019-03-06T06:01:28.346Z,1010.47
2019-03-06T06:02:28.564Z,1010.46
2019-03-06T06:03:28.262Z,1010.42
2019-03-06T06:04:28.304Z,1010.4
2019-03-06T06:05:28.535Z,1010.39
2019-03-06T06:06:28.297Z,1010.39
2019-03-06T06:07:28.272Z,1010.4
2019-03-06T06:08:28.334Z,1010.34
2019-03-06T06:09:28.270Z,1010.31
2019-03-06T06:10:28.270Z,1010.32
2019-03-06T06:11:28.623Z,1010.28
2019-03-06T06:12:28.259Z,1010.25
2019-03-06T06:13:28.293Z,1010.25
2019-03-06T06:14:28.240Z,1010.27
2019-03-06T06:15:28.250Z,1010.27
2019-03-06T06:16:28.259Z,1010.27
2019-03-06T06:17:28.257Z,1010.25
2019-03-06T06:18:28.251Z,1010.25
2019-03-06T06:19:28.260Z,1010.24
2019-03-06T06:20:28.581Z,1010.23
2019-03-06T06:21:28.280Z,1010.2
2019-03-06T06:22:28.262Z,1010.17
2019-03-06T06:23:28.243Z,1010.16
2019-03-06T06:24:28.255Z,1010.18
2019-03-06T06:25:28.257Z,1010.17
2019-03-06T06:26:28.591Z,1010.17
2019-03-06T06:27:28.248Z,1010.16
2019-03-06T06:28:28.251Z,1010.09
2019-03-06T06:29:28.251Z,1010.1
2019-03-06T06:30:28.269Z,1010.05
2019-03-06T06:31:28.249Z,1010.04
2019-03-06T06:32:28.261Z,1010.01
2019-03-06T06:33:28.262Z,1010.01
2019-03-06T06:34:28.264Z,1010.04
2019-03-06T06:35:28.248Z,1010.03
2019-03-06T06:36:28.233Z,1010.04
2019-03-06T06:37:28.385Z,1010.06
2019-03-06T06:38:28.230Z,1010.04
2019-03-06T06:39:28.251Z,1010.04
2019-03-06T06:40:28.208Z,1010.05
2019-03-06T06:41:28.231Z,1010
2019-03-06T06:42:28.245Z,1010.01
2019-03-06T06:43:28.206Z,1009.93
2019-03-06T06:44:28.221Z,1009.92
2019-03-06T06:45:28.208Z,1009.89
2019-03-06T06:46:28.549Z,1009.93
2019-03-06T06:47:28.224Z,1009.93
2019-03-06T06:48:28.367Z,1009.93
2019-03-06T06:49:28.247Z,1009.9
2019-03-06T06:50:28.220Z,1009.87
2019-03-06T06:51:28.201Z,1009.88
2019-03-06T06:52:28.182Z,1009.89
2019-03-06T06:53:28.195Z,1009.81
2019-03-06T06:54:28.196Z,1009.8
2019-03-06T06:55:28.509Z,1009.8
2019-03-06T06:56:28.334Z,1009.81
2019-03-06T06:57:28.184Z,1009.79
2019-03-06T06:58:31.730Z,1009.79
2019-03-06T06:59:28.395Z,1009.77
2019-03-06T07:00:28.180Z,1009.8
2019-03-06T07:01:28.243Z,1009.72
2019-03-06T07:02:28.190Z,1009.74
2019-03-06T07:03:28.188Z,1009.72
2019-03-06T07:04:28.380Z,1009.67
2019-03-06T07:05:28.175Z,1009.62
2019-03-06T07:06:28.181Z,1009.64
2019-03-06T07:07:28.214Z,1009.63
2019-03-06T07:08:28.175Z,1009.64
2019-03-06T07:09:28.165Z,1009.63
2019-03-06T07:10:28.527Z,1009.61
2019-03-06T07:11:28.171Z,1009.65
2019-03-06T07:12:28.192Z,1009.62
2019-03-06T07:13:28.421Z,1009.58
2019-03-06T07:14:28.153Z,1009.52
2019-03-06T07:15:28.160Z,1009.52
2019-03-06T07:16:28.155Z,1009.52
2019-03-06T07:17:28.174Z,1009.47
2019-03-06T07:18:28.155Z,1009.44
2019-03-06T07:19:28.148Z,1009.44
2019-03-06T07:20:28.160Z,1009.39
2019-03-06T07:21:28.209Z,1009.41
2019-03-06T07:22:28.360Z,1009.42
2019-03-06T07:23:28.146Z,1009.39
2019-03-06T07:24:28.161Z,1009.42
2019-03-06T07:25:28.161Z,1009.42
2019-03-06T07:26:28.157Z,1009.35
2019-03-06T07:27:28.175Z,1009.37
2019-03-06T07:28:28.175Z,1009.36
2019-03-06T07:29:28.171Z,1009.36
2019-03-06T07:30:28.146Z,1009.33
2019-03-06T07:31:28.260Z,1009.34
2019-03-06T07:32:28.501Z,1009.35
2019-03-06T07:33:28.132Z,1009.35
2019-03-06T07:34:28.144Z,1009.37
2019-03-06T07:35:28.140Z,1009.35
2019-03-06T07:36:28.119Z,1009.45
2019-03-06T07:37:29.099Z,1009.42
2019-03-06T07:38:28.117Z,1009.4
2019-03-06T07:39:28.132Z,1009.39
2019-03-06T07:40:28.125Z,1009.45
2019-03-06T07:41:28.129Z,1009.44
2019-03-06T07:42:28.143Z,1009.46
2019-03-06T07:43:28.111Z,1009.44
2019-03-06T07:44:30.291Z,1009.49
2019-03-06T07:45:28.105Z,1009.53
2019-03-06T07:46:28.112Z,1009.53
2019-03-06T07:47:28.118Z,1009.57
2019-03-06T07:48:28.112Z,1009.52
2019-03-06T07:49:28.121Z,1009.48
2019-03-06T07:50:28.320Z,1009.56
2019-03-06T07:51:28.113Z,1009.55
2019-03-06T07:52:28.103Z,1009.51
2019-03-06T07:53:28.098Z,1009.52
2019-03-06T07:54:28.302Z,1009.45
2019-03-06T07:55:28.099Z,1009.44
2019-03-06T07:56:28.107Z,1009.39
2019-03-06T07:57:28.100Z,1009.41
2019-03-06T07:58:28.097Z,1009.36
2019-03-06T07:59:28.359Z,1009.35
2019-03-06T08:00:28.091Z,1009.33
2019-03-06T08:01:28.087Z,1009.32
2019-03-06T08:02:28.094Z,1009.27
2019-03-06T08:03:28.099Z,1009.24
2019-03-06T08:04:28.105Z,1009.22
2019-03-06T08:05:28.084Z,1009.19
2019-03-06T08:06:28.099Z,1009.22
2019-03-06T08:07:28.091Z,1009.23
2019-03-06T08:08:28.271Z,1009.21
2019-03-06T08:09:28.088Z,1009.19
2019-03-06T08:10:28.104Z,1009.23
2019-03-06T08:11:28.099Z,1009.23
2019-03-06T08:12:28.078Z,1009.26
2019-03-06T08:13:28.066Z,1009.28
2019-03-06T08:14:28.071Z,1009.26
2019-03-06T08:15:28.077Z,1009.3
2019-03-06T08:16:28.254Z,1009.3
2019-03-06T08:17:28.439Z,1009.3
2019-03-06T08:18:28.070Z,1009.31
2019-03-06T08:19:28.093Z,1009.25
2019-03-06T08:20:28.062Z,1009.27
2019-03-06T08:21:28.062Z,1009.2
2019-03-06T08:22:28.068Z,1009.19
2019-03-06T08:23:28.077Z,1009.13
2019-03-06T08:24:28.069Z,1009.17
2019-03-06T08:25:28.058Z,1009.17
2019-03-06T08:26:28.236Z,1009.2
2019-03-06T08:27:28.060Z,1009.15
2019-03-06T08:28:28.064Z,1009.2
2019-03-06T08:29:28.074Z,1009.13
2019-03-06T08:30:28.067Z,1009.13
2019-03-06T08:31:28.057Z,1009.12
2019-03-06T08:32:28.085Z,1009.11
2019-03-06T08:33:28.043Z,1009.08
2019-03-06T08:34:28.054Z,1009.05
2019-03-06T08:35:28.329Z,1009.02
2019-03-06T08:36:28.056Z,1008.97
2019-03-06T08:37:28.053Z,1008.91
2019-03-06T08:38:29.044Z,1008.89
2019-03-06T08:39:28.074Z,1008.9
2019-03-06T08:40:28.053Z,1008.8
2019-03-06T08:41:28.042Z,1008.79
2019-03-06T08:42:28.081Z,1008.78
2019-03-06T08:43:28.035Z,1008.82
2019-03-06T08:44:28.394Z,1008.79
2019-03-06T08:45:28.156Z,1008.78
2019-03-06T08:46:28.052Z,1008.8
2019-03-06T08:47:28.033Z,1008.7
2019-03-06T08:48:28.021Z,1008.69
2019-03-06T08:49:28.037Z,1008.7
2019-03-06T08:50:28.079Z,1008.67
2019-03-06T08:51:28.033Z,1008.72
2019-03-06T08:52:28.033Z,1008.65
2019-03-06T08:53:28.373Z,1008.67
2019-03-06T08:54:28.025Z,1008.65
2019-03-06T08:55:29.463Z,1008.65
2019-03-06T08:56:28.026Z,1008.66
2019-03-06T08:57:28.032Z,1008.62
2019-03-06T08:58:28.015Z,1008.6
2019-03-06T08:59:28.570Z,1008.64
2019-03-06T09:00:28.195Z,1008.57
2019-03-06T09:01:28.093Z,1008.56
2019-03-06T09:02:28.638Z,1008.56
2019-03-06T09:03:28.041Z,1008.53
2019-03-06T09:04:27.993Z,1008.51
2019-03-06T09:05:28.011Z,1008.52
2019-03-06T09:06:28.059Z,1008.43
2019-03-06T09:07:28.025Z,1008.39
2019-03-06T09:08:27.992Z,1008.42
2019-03-06T09:09:27.985Z,1008.38
2019-03-06T09:10:28.002Z,1008.4
2019-03-06T09:11:28.150Z,1008.42
2019-03-06T09:12:27.995Z,1008.39
2019-03-06T09:13:28.004Z,1008.38
2019-03-06T09:14:27.977Z,1008.36
2019-03-06T09:15:28.004Z,1008.31
2019-03-06T09:16:27.979Z,1008.3
2019-03-06T09:17:27.995Z,1008.24
2019-03-06T09:18:27.986Z,1008.26
2019-03-06T09:19:28.006Z,1008.22
2019-03-06T09:20:39.068Z,1008.22
2019-03-06T09:21:27.986Z,1008.19
2019-03-06T09:22:28.165Z,1008.14
2019-03-06T09:23:27.994Z,1008.11
2019-03-06T09:24:27.997Z,1008.09
2019-03-06T09:25:27.992Z,1008.11
2019-03-06T09:26:27.970Z,1008.08
2019-03-06T09:27:27.989Z,1008.07
2019-03-06T09:28:27.999Z,1008.04
2019-03-06T09:29:28.178Z,1008.04
2019-03-06T09:30:27.958Z,1008.06
2019-03-06T09:31:27.984Z,1008.03
2019-03-06T09:32:28.002Z,1008.03
2019-03-06T09:33:27.986Z,1008.04
2019-03-06T09:34:28.442Z,1008.04
2019-03-06T09:35:27.968Z,1008.05
2019-03-06T09:36:27.950Z,1008.03
2019-03-06T09:37:27.957Z,1007.98
2019-03-06T09:38:28.168Z,1007.92
2019-03-06T09:39:27.950Z,1007.94
2019-03-06T09:40:27.955Z,1007.93
2019-03-06T09:41:27.955Z,1007.9
2019-03-06T09:42:27.956Z,1007.9
2019-03-06T09:43:27.961Z,1007.84
2019-03-06T09:44:28.098Z,1007.83
2019-03-06T09:45:27.964Z,1007.77
2019-03-06T09:46:27.947Z,1007.71
2019-03-06T09:47:27.936Z,1007.69
2019-03-06T09:48:27.947Z,1007.65
2019-03-06T09:49:27.957Z,1007.63
2019-03-06T09:50:27.941Z,1007.64
2019-03-06T09:51:27.951Z,1007.55
2019-03-06T09:52:28.054Z,1007.55
2019-03-06T09:53:27.950Z,1007.52
2019-03-06T09:54:27.946Z,1007.46
2019-03-06T09:55:28.109Z,1007.37
2019-03-06T09:56:27.925Z,1007.34
2019-03-06T09:57:27.947Z,1007.29
2019-03-06T09:58:28.017Z,1007.34
2019-03-06T09:59:27.927Z,1007.4
2019-03-06T10:00:27.918Z,1007.38
2019-03-06T10:01:27.949Z,1007.5
2019-03-06T10:02:27.963Z,1007.52
2019-03-06T10:03:27.970Z,1007.54
2019-03-06T10:04:28.102Z,1007.54
2019-03-06T10:05:27.912Z,1007.52
2019-03-06T10:06:28.212Z,1007.56
2019-03-06T10:07:27.940Z,1007.54
2019-03-06T10:08:27.937Z,1007.52
2019-03-06T10:09:27.920Z,1007.53
2019-03-06T10:10:27.919Z,1007.44
2019-03-06T10:11:27.914Z,1007.4
2019-03-06T10:12:27.908Z,1007.38
2019-03-06T10:13:28.499Z,1007.34
2019-03-06T10:14:27.992Z,1007.32
2019-03-06T10:15:27.904Z,1007.27
2019-03-06T10:16:27.916Z,1007.27
2019-03-06T10:17:27.921Z,1007.28
2019-03-06T10:18:27.949Z,1007.25
2019-03-06T10:19:29.708Z,1007.23
2019-03-06T10:20:27.901Z,1007.19
2019-03-06T10:21:27.919Z,1007.17
2019-03-06T10:22:27.902Z,1007.2
2019-03-06T10:23:27.919Z,1007.15
2019-03-06T10:24:27.928Z,1007.11
2019-03-06T10:25:31.816Z,1007.12
2019-03-06T10:26:29.098Z,1007.13
2019-03-06T10:27:27.917Z,1007.13
2019-03-06T10:28:28.210Z,1007.09
2019-03-06T10:29:27.919Z,1007.13
2019-03-06T10:30:28.204Z,1007.07
2019-03-06T10:31:27.890Z,1007.04
2019-03-06T10:32:27.914Z,1006.99
2019-03-06T10:33:27.913Z,1006.95
2019-03-06T10:34:27.902Z,1006.92
2019-03-06T10:35:28.095Z,1006.92
2019-03-06T10:36:28.053Z,1006.91
2019-03-06T10:37:27.965Z,1006.91
2019-03-06T10:38:27.928Z,1006.93
2019-03-06T10:39:27.876Z,1006.91
2019-03-06T10:40:27.975Z,1006.96
2019-03-06T10:41:27.927Z,1006.95
2019-03-06T10:42:27.902Z,1006.97
2019-03-06T10:43:27.898Z,1006.98
2019-03-06T10:44:30.127Z,1006.99
2019-03-06T10:45:28.200Z,1007.01
2019-03-06T10:46:27.886Z,1007.01
2019-03-06T10:47:27.882Z,1006.93
2019-03-06T10:48:27.886Z,1006.95
2019-03-06T10:49:27.964Z,1006.95
2019-03-06T10:50:30.436Z,1006.98
2019-03-06T10:51:27.955Z,1007.01
2019-03-06T10:52:27.978Z,1006.99
2019-03-06T10:53:27.911Z,1006.93
2019-03-06T10:54:27.857Z,1006.83
2019-03-06T10:55:27.929Z,1006.76
2019-03-06T10:56:27.868Z,1006.7
2019-03-06T10:57:27.871Z,1006.69
2019-03-06T10:58:27.872Z,1006.65
2019-03-06T10:59:27.878Z,1006.65
2019-03-06T11:00:29.071Z,1006.58
2019-03-06T11:01:27.934Z,1006.58
2019-03-06T11:02:27.855Z,1006.54
2019-03-06T11:03:27.845Z,1006.53
2019-03-06T11:04:27.902Z,1006.45
2019-03-06T11:05:27.870Z,1006.46
2019-03-06T11:06:27.862Z,1006.51
2019-03-06T11:07:27.872Z,1006.52
2019-03-06T11:08:27.869Z,1006.54
2019-03-06T11:09:27.879Z,1006.39
2019-03-06T11:10:28.060Z,1006.34
2019-03-06T11:11:27.939Z,1006.34
2019-03-06T11:12:27.856Z,1006.33
2019-03-06T11:13:27.948Z,1006.31
2019-03-06T11:14:27.876Z,1006.27
2019-03-06T11:15:27.865Z,1006.31
2019-03-06T11:16:29.602Z,1006.33
2019-03-06T11:17:28.107Z,1006.28
2019-03-06T11:18:27.929Z,1006.26
2019-03-06T11:19:27.863Z,1006.27
2019-03-06T11:20:27.834Z,1006.25
2019-03-06T11:21:27.849Z,1006.18
2019-03-06T11:22:27.853Z,1006.2
2019-03-06T11:23:27.845Z,1006.22
2019-03-06T11:24:27.876Z,1006.18
2019-03-06T11:25:27.823Z,1006.16
2019-03-06T11:26:27.838Z,1006.1
2019-03-06T11:27:28.052Z,1006.07
2019-03-06T11:28:27.834Z,1005.99
2019-03-06T11:29:27.825Z,1005.93
2019-03-06T11:30:27.810Z,1005.95
2019-03-06T11:31:27.880Z,1005.96
2019-03-06T11:32:28.100Z,1005.93
2019-03-06T11:33:28.084Z,1005.84
2019-03-06T11:34:27.826Z,1005.82
2019-03-06T11:35:27.799Z,1005.81
2019-03-06T11:36:27.809Z,1005.76
2019-03-06T11:37:27.834Z,1005.75
2019-03-06T11:38:27.790Z,1005.68
2019-03-06T11:39:27.856Z,1005.72
2019-03-06T11:40:27.836Z,1005.68
2019-03-06T11:41:27.905Z,1005.66
2019-03-06T11:42:27.802Z,1005.66
2019-03-06T11:43:27.829Z,1005.64
2019-03-06T11:44:27.838Z,1005.58
2019-03-06T11:45:27.816Z,1005.54
2019-03-06T11:46:27.795Z,1005.57
2019-03-06T11:47:27.798Z,1005.58
2019-03-06T11:48:27.788Z,1005.53
2019-03-06T11:49:27.909Z,1005.47
2019-03-06T11:50:27.813Z,1005.44
2019-03-06T11:51:27.892Z,1005.43
2019-03-06T11:52:27.786Z,1005.4
2019-03-06T11:53:27.777Z,1005.38
2019-03-06T11:54:27.950Z,1005.38
2019-03-06T11:55:27.786Z,1005.38
2019-03-06T11:56:27.771Z,1005.39
2019-03-06T11:57:27.772Z,1005.35
2019-03-06T11:58:27.755Z,1005.35
2019-03-06T11:59:27.788Z,1005.35
2019-03-06T12:00:27.793Z,1005.33
2019-03-06T12:01:27.770Z,1005.31
2019-03-06T12:02:27.770Z,1005.29
2019-03-06T12:03:27.790Z,1005.32
2019-03-06T12:04:28.027Z,1005.27
2019-03-06T12:05:27.775Z,1005.25
2019-03-06T12:06:27.776Z,1005.23
2019-03-06T12:07:27.800Z,1005.23
2019-03-06T12:08:27.758Z,1005.2